Terminal Aerodrome Forecast
Issued by NWS

Home | Current Version | Previous Version | Graphics & Text | Print | Product List | Glossary On
Versions: 1 2 3 4 5 6 7 8 9 10 11 12 13 14
000
FTUS43 KGRB 160500
TAFATW
TAF
KATW 160520Z 1606/1706 08007KT P6SM BKN200
     FM161000 07004KT P6SM BKN100
     FM162000 14005KT P6SM SCT100 BKN200=

USA.gov is the U.S. government's official web portal to all federal, state and local government web resources and services.